sensor_id;sensor_type;location;lat;lon;timestamp;temperature;humidity
1205;DHT22;592;48.764;9.174;2022-11-18T00:01:04;8.60;99.90
1205;DHT22;592;48.764;9.174;2022-11-18T00:03:33;8.70;99.90
1205;DHT22;592;48.764;9.174;2022-11-18T00:06:00;8.60;99.90
1205;DHT22;592;48.764;9.174;2022-11-18T00:08:26;8.70;99.90
1205;DHT22;592;48.764;9.174;2022-11-18T00:10:53;8.60;99.90
1205;DHT22;592;48.764;9.174;2022-11-18T00:13:20;8.60;99.90
1205;DHT22;592;48.764;9.174;2022-11-18T00:16:06;8.60;99.90
1205;DHT22;592;48.764;9.174;2022-11-18T00:18:35;8.50;99.90
1205;DHT22;592;48.764;9.174;2022-11-18T00:21:03;8.60;99.90
1205;DHT22;592;48.764;9.174;2022-11-18T00:23:30;8.50;99.90
1205;DHT22;592;48.764;9.174;2022-11-18T00:26:01;8.60;99.90
1205;DHT22;592;48.764;9.174;2022-11-18T00:28:28;8.60;99.90
1205;DHT22;592;48.764;9.174;2022-11-18T00:31:00;8.70;99.90
1205;DHT22;592;48.764;9.174;2022-11-18T00:33:27;8.60;99.90
1205;DHT22;592;48.764;9.174;2022-11-18T00:35:55;8.50;99.90
1205;DHT22;592;48.764;9.174;2022-11-18T00:38:22;8.60;99.90
1205;DHT22;592;48.764;9.174;2022-11-18T00:40:49;8.40;99.90
1205;DHT22;592;48.764;9.174;2022-11-18T00:43:15;8.30;99.90
1205;DHT22;592;48.764;9.174;2022-11-18T00:45:42;8.30;99.90
1205;DHT22;592;48.764;9.174;2022-11-18T00:48:08;8.30;99.90
1205;DHT22;592;48.764;9.174;2022-11-18T00:50:35;8.40;99.90
1205;DHT22;592;48.764;9.174;2022-11-18T00:53:03;8.50;99.90
1205;DHT22;592;48.764;9.174;2022-11-18T00:55:30;8.50;99.90
1205;DHT22;592;48.764;9.174;2022-11-18T00:57:57;8.50;99.90
1205;DHT22;592;48.764;9.174;2022-11-18T01:00:23;8.50;99.90
1205;DHT22;592;48.764;9.174;2022-11-18T01:02:50;8.50;99.90
1205;DHT22;592;48.764;9.174;2022-11-18T01:05:17;8.50;99.90
1205;DHT22;592;48.764;9.174;2022-11-18T01:07:44;8.50;99.90
1205;DHT22;592;48.764;9.174;2022-11-18T01:10:13;8.60;99.90
1205;DHT22;592;48.764;9.174;2022-11-18T01:12:40;8.50;99.90
1205;DHT22;592;48.764;9.174;2022-11-18T01:15:24;8.40;99.90
1205;DHT22;592;48.764;9.174;2022-11-18T01:17:51;8.50;99.90
1205;DHT22;592;48.764;9.174;2022-11-18T01:20:17;8.40;99.90
1205;DHT22;592;48.764;9.174;2022-11-18T01:22:44;8.50;99.90
1205;DHT22;592;48.764;9.174;2022-11-18T01:25:12;8.50;99.90
1205;DHT22;592;48.764;9.174;2022-11-18T01:27:39;8.50;99.90
1205;DHT22;592;48.764;9.174;2022-11-18T01:30:07;8.50;99.90
1205;DHT22;592;48.764;9.174;2022-11-18T01:32:34;8.50;99.90
1205;DHT22;592;48.764;9.174;2022-11-18T01:35:00;8.50;99.90
1205;DHT22;592;48.764;9.174;2022-11-18T01:37:27;8.50;99.90
1205;DHT22;592;48.764;9.174;2022-11-18T01:39:54;8.60;99.90
1205;DHT22;592;48.764;9.174;2022-11-18T01:42:22;8.60;99.90
1205;DHT22;592;48.764;9.174;2022-11-18T01:45:04;8.60;99.90
1205;DHT22;592;48.764;9.174;2022-11-18T01:47:39;8.50;99.90
1205;DHT22;592;48.764;9.174;2022-11-18T01:50:07;8.50;99.90
1205;DHT22;592;48.764;9.174;2022-11-18T01:52:34;8.40;99.90
1205;DHT22;592;48.764;9.174;2022-11-18T01:55:06;8.40;99.90
1205;DHT22;592;48.764;9.174;2022-11-18T01:57:35;8.50;99.90
1205;DHT22;592;48.764;9.174;2022-11-18T02:00:04;8.50;99.90
1205;DHT22;592;48.764;9.174;2022-11-18T02:02:34;8.50;99.90
1205;DHT22;592;48.764;9.174;2022-11-18T02:05:03;8.50;99.90
1205;DHT22;592;48.764;9.174;2022-11-18T02:07:31;8.50;99.90
1205;DHT22;592;48.764;9.174;2022-11-18T02:10:02;8.50;99.90
1205;DHT22;592;48.764;9.174;2022-11-18T02:12:29;8.50;99.90
1205;DHT22;592;48.764;9.174;2022-11-18T02:14:58;8.50;99.90
1205;DHT22;592;48.764;9.174;2022-11-18T02:17:35;8.50;99.90
1205;DHT22;592;48.764;9.174;2022-11-18T02:20:17;8.50;99.90
1205;DHT22;592;48.764;9.174;2022-11-18T02:25:49;8.50;99.90
1205;DHT22;592;48.764;9.174;2022-11-18T02:28:28;8.60;99.90
1205;DHT22;592;48.764;9.174;2022-11-18T02:31:06;8.50;99.90
1205;DHT22;592;48.764;9.174;2022-11-18T02:33:38;8.50;99.90
1205;DHT22;592;48.764;9.174;2022-11-18T02:36:14;8.50;99.90
1205;DHT22;592;48.764;9.174;2022-11-18T02:38:45;8.50;99.90
1205;DHT22;592;48.764;9.174;2022-11-18T02:41:17;8.60;99.90
1205;DHT22;592;48.764;9.174;2022-11-18T02:43:47;8.60;99.90
1205;DHT22;592;48.764;9.174;2022-11-18T02:46:19;8.60;99.90
1205;DHT22;592;48.764;9.174;2022-11-18T02:48:49;8.60;99.90
1205;DHT22;592;48.764;9.174;2022-11-18T02:51:20;8.60;99.90
1205;DHT22;592;48.764;9.174;2022-11-18T02:53:50;8.60;99.90
1205;DHT22;592;48.764;9.174;2022-11-18T02:56:20;8.60;99.90
1205;DHT22;592;48.764;9.174;2022-11-18T02:58:47;8.60;99.90
1205;DHT22;592;48.764;9.174;2022-11-18T03:01:18;8.50;99.90
1205;DHT22;592;48.764;9.174;2022-11-18T03:03:46;8.50;99.90
1205;DHT22;592;48.764;9.174;2022-11-18T03:06:26;8.50;99.90
1205;DHT22;592;48.764;9.174;2022-11-18T03:09:00;8.50;99.90
1205;DHT22;592;48.764;9.174;2022-11-18T03:11:31;8.60;99.90
1205;DHT22;592;48.764;9.174;2022-11-18T03:14:07;8.50;99.90
1205;DHT22;592;48.764;9.174;2022-11-18T03:16:39;8.60;99.90
1205;DHT22;592;48.764;9.174;2022-11-18T03:19:13;8.60;99.90
1205;DHT22;592;48.764;9.174;2022-11-18T03:21:49;8.50;99.90
1205;DHT22;592;48.764;9.174;2022-11-18T03:24:21;8.60;99.90
1205;DHT22;592;48.764;9.174;2022-11-18T03:26:54;8.60;99.90
1205;DHT22;592;48.764;9.174;2022-11-18T03:29:29;8.60;99.90
1205;DHT22;592;48.764;9.174;2022-11-18T03:32:03;8.70;99.90
1205;DHT22;592;48.764;9.174;2022-11-18T03:34:35;8.60;99.90
1205;DHT22;592;48.764;9.174;2022-11-18T03:37:06;8.70;99.90
1205;DHT22;592;48.764;9.174;2022-11-18T03:39:36;8.70;99.90
1205;DHT22;592;48.764;9.174;2022-11-18T03:42:09;8.80;99.90
1205;DHT22;592;48.764;9.174;2022-11-18T03:44:40;8.60;99.90
1205;DHT22;592;48.764;9.174;2022-11-18T03:47:11;8.60;99.90
1205;DHT22;592;48.764;9.174;2022-11-18T03:49:44;8.60;99.90
1205;DHT22;592;48.764;9.174;2022-11-18T03:52:15;8.70;99.90
1205;DHT22;592;48.764;9.174;2022-11-18T03:54:45;8.70;99.90
1205;DHT22;592;48.764;9.174;2022-11-18T03:57:15;8.80;99.90
1205;DHT22;592;48.764;9.174;2022-11-18T03:59:47;8.70;99.90
1205;DHT22;592;48.764;9.174;2022-11-18T04:02:17;8.60;99.90
1205;DHT22;592;48.764;9.174;2022-11-18T04:04:48;8.60;99.90
1205;DHT22;592;48.764;9.174;2022-11-18T04:07:20;8.60;99.90
1205;DHT22;592;48.764;9.174;2022-11-18T04:09:55;8.50;99.90
1205;DHT22;592;48.764;9.174;2022-11-18T04:12:23;8.40;99.90
1205;DHT22;592;48.764;9.174;2022-11-18T04:14:50;8.30;99.90
1205;DHT22;592;48.764;9.174;2022-11-18T04:17:22;8.30;99.90
1205;DHT22;592;48.764;9.174;2022-11-18T04:19:49;8.40;99.90
1205;DHT22;592;48.764;9.174;2022-11-18T04:22:16;8.30;99.90
1205;DHT22;592;48.764;9.174;2022-11-18T04:24:43;8.40;99.90
1205;DHT22;592;48.764;9.174;2022-11-18T04:27:10;8.40;99.90
1205;DHT22;592;48.764;9.174;2022-11-18T04:29:37;8.40;99.90
1205;DHT22;592;48.764;9.174;2022-11-18T04:32:05;8.40;99.90
1205;DHT22;592;48.764;9.174;2022-11-18T04:34:33;8.40;99.90
1205;DHT22;592;48.764;9.174;2022-11-18T04:37:00;8.40;99.90
1205;DHT22;592;48.764;9.174;2022-11-18T04:39:26;8.40;99.90
1205;DHT22;592;48.764;9.174;2022-11-18T04:41:53;8.40;99.90
1205;DHT22;592;48.764;9.174;2022-11-18T04:44:24;8.40;99.90
1205;DHT22;592;48.764;9.174;2022-11-18T04:46:52;8.40;99.90
1205;DHT22;592;48.764;9.174;2022-11-18T04:49:19;8.40;99.90
1205;DHT22;592;48.764;9.174;2022-11-18T04:51:47;8.40;99.90
1205;DHT22;592;48.764;9.174;2022-11-18T04:54:14;8.30;99.90
1205;DHT22;592;48.764;9.174;2022-11-18T04:56:42;8.30;99.90
1205;DHT22;592;48.764;9.174;2022-11-18T04:59:10;8.30;99.90
1205;DHT22;592;48.764;9.174;2022-11-18T05:01:37;8.30;99.90
1205;DHT22;592;48.764;9.174;2022-11-18T05:04:04;8.30;99.90
1205;DHT22;592;48.764;9.174;2022-11-18T05:06:32;8.20;99.90
1205;DHT22;592;48.764;9.174;2022-11-18T05:09:01;8.20;99.90
1205;DHT22;592;48.764;9.174;2022-11-18T05:11:28;8.10;99.90
1205;DHT22;592;48.764;9.174;2022-11-18T05:14:12;8.00;99.90
1205;DHT22;592;48.764;9.174;2022-11-18T05:16:39;8.00;99.90
1205;DHT22;592;48.764;9.174;2022-11-18T05:19:06;8.00;99.90
1205;DHT22;592;48.764;9.174;2022-11-18T05:21:33;7.90;99.90
1205;DHT22;592;48.764;9.174;2022-11-18T05:24:02;8.00;99.90
1205;DHT22;592;48.764;9.174;2022-11-18T05:26:29;7.80;99.90
1205;DHT22;592;48.764;9.174;2022-11-18T05:28:56;7.80;99.90
1205;DHT22;592;48.764;9.174;2022-11-18T05:31:23;7.90;99.90
1205;DHT22;592;48.764;9.174;2022-11-18T05:33:50;7.80;99.90
1205;DHT22;592;48.764;9.174;2022-11-18T05:36:18;7.90;99.90
1205;DHT22;592;48.764;9.174;2022-11-18T05:38:45;7.80;99.90
1205;DHT22;592;48.764;9.174;2022-11-18T05:41:13;7.80;99.90
1205;DHT22;592;48.764;9.174;2022-11-18T05:44:01;7.80;99.90
1205;DHT22;592;48.764;9.174;2022-11-18T05:46:28;7.90;99.90
1205;DHT22;592;48.764;9.174;2022-11-18T05:48:54;7.70;99.90
1205;DHT22;592;48.764;9.174;2022-11-18T05:51:21;7.80;99.90
1205;DHT22;592;48.764;9.174;2022-11-18T05:53:50;7.80;99.90
1205;DHT22;592;48.764;9.174;2022-11-18T05:56:21;7.70;99.90
1205;DHT22;592;48.764;9.174;2022-11-18T05:58:49;7.60;99.90
1205;DHT22;592;48.764;9.174;2022-11-18T06:01:19;7.70;99.90
1205;DHT22;592;48.764;9.174;2022-11-18T06:03:47;7.70;99.90
1205;DHT22;592;48.764;9.174;2022-11-18T06:06:16;7.70;99.90
1205;DHT22;592;48.764;9.174;2022-11-18T06:08:46;7.70;99.90
1205;DHT22;592;48.764;9.174;2022-11-18T06:11:16;7.80;99.90
1205;DHT22;592;48.764;9.174;2022-11-18T06:13:49;7.80;99.90
1205;DHT22;592;48.764;9.174;2022-11-18T06:16:20;7.80;99.90
1205;DHT22;592;48.764;9.174;2022-11-18T06:18:48;7.80;99.90
1205;DHT22;592;48.764;9.174;2022-11-18T06:21:15;7.70;99.90
1205;DHT22;592;48.764;9.174;2022-11-18T06:23:42;7.70;99.90
1205;DHT22;592;48.764;9.174;2022-11-18T06:26:09;7.70;99.90
1205;DHT22;592;48.764;9.174;2022-11-18T06:28:37;7.70;99.90
1205;DHT22;592;48.764;9.174;2022-11-18T06:31:06;7.70;99.90
1205;DHT22;592;48.764;9.174;2022-11-18T06:33:33;7.70;99.90
1205;DHT22;592;48.764;9.174;2022-11-18T06:36:00;7.80;99.90
1205;DHT22;592;48.764;9.174;2022-11-18T06:38:26;7.80;99.90
1205;DHT22;592;48.764;9.174;2022-11-18T06:40:57;7.80;99.90
1205;DHT22;592;48.764;9.174;2022-11-18T06:43:23;7.80;99.90
1205;DHT22;592;48.764;9.174;2022-11-18T06:46:09;7.70;99.90
1205;DHT22;592;48.764;9.174;2022-11-18T06:48:54;7.80;99.90
1205;DHT22;592;48.764;9.174;2022-11-18T06:51:21;7.70;99.90
1205;DHT22;592;48.764;9.174;2022-11-18T06:53:48;7.80;99.90
1205;DHT22;592;48.764;9.174;2022-11-18T06:56:16;7.80;99.90
1205;DHT22;592;48.764;9.174;2022-11-18T06:58:43;7.70;99.90
1205;DHT22;592;48.764;9.174;2022-11-18T07:01:13;7.70;99.90
1205;DHT22;592;48.764;9.174;2022-11-18T07:03:40;7.70;99.90
1205;DHT22;592;48.764;9.174;2022-11-18T07:06:09;7.70;99.90
1205;DHT22;592;48.764;9.174;2022-11-18T07:08:36;7.80;99.90
1205;DHT22;592;48.764;9.174;2022-11-18T07:11:03;7.70;99.90
1205;DHT22;592;48.764;9.174;2022-11-18T07:13:33;7.80;99.90
1205;DHT22;592;48.764;9.174;2022-11-18T07:16:02;7.80;99.90
1205;DHT22;592;48.764;9.174;2022-11-18T07:18:31;7.90;99.90
1205;DHT22;592;48.764;9.174;2022-11-18T07:21:01;7.90;99.90
1205;DHT22;592;48.764;9.174;2022-11-18T07:23:29;7.90;99.90
1205;DHT22;592;48.764;9.174;2022-11-18T07:25:56;7.90;99.90
1205;DHT22;592;48.764;9.174;2022-11-18T07:28:23;7.90;99.90
1205;DHT22;592;48.764;9.174;2022-11-18T07:30:51;7.90;99.90
1205;DHT22;592;48.764;9.174;2022-11-18T07:33:18;7.90;99.90
1205;DHT22;592;48.764;9.174;2022-11-18T07:35:46;8.00;99.90
1205;DHT22;592;48.764;9.174;2022-11-18T07:38:13;8.00;99.90
1205;DHT22;592;48.764;9.174;2022-11-18T07:40:39;8.00;99.90
1205;DHT22;592;48.764;9.174;2022-11-18T07:43:06;8.00;99.90
1205;DHT22;592;48.764;9.174;2022-11-18T07:45:33;8.20;99.90
1205;DHT22;592;48.764;9.174;2022-11-18T07:48:00;8.00;99.90
1205;DHT22;592;48.764;9.174;2022-11-18T07:50:27;8.00;99.90
1205;DHT22;592;48.764;9.174;2022-11-18T07:52:56;8.00;99.90
1205;DHT22;592;48.764;9.174;2022-11-18T07:55:23;8.00;99.90
1205;DHT22;592;48.764;9.174;2022-11-18T07:57:49;7.90;99.90
1205;DHT22;592;48.764;9.174;2022-11-18T08:00:17;7.90;99.90
1205;DHT22;592;48.764;9.174;2022-11-18T08:02:44;7.90;99.90
1205;DHT22;592;48.764;9.174;2022-11-18T08:05:10;7.80;99.90
1205;DHT22;592;48.764;9.174;2022-11-18T08:07:37;7.70;99.90
1205;DHT22;592;48.764;9.174;2022-11-18T08:10:06;7.90;99.90
1205;DHT22;592;48.764;9.174;2022-11-18T08:12:33;8.00;99.90
1205;DHT22;592;48.764;9.174;2022-11-18T08:15:00;8.10;99.90
1205;DHT22;592;48.764;9.174;2022-11-18T08:17:27;8.10;99.90
1205;DHT22;592;48.764;9.174;2022-11-18T08:19:54;8.10;99.90
1205;DHT22;592;48.764;9.174;2022-11-18T08:22:20;8.10;99.90
1205;DHT22;592;48.764;9.174;2022-11-18T08:24:47;8.10;99.90
1205;DHT22;592;48.764;9.174;2022-11-18T08:27:15;8.10;99.90
1205;DHT22;592;48.764;9.174;2022-11-18T08:29:42;8.00;99.90
1205;DHT22;592;48.764;9.174;2022-11-18T08:32:09;8.00;99.90
1205;DHT22;592;48.764;9.174;2022-11-18T08:34:36;8.00;99.90
1205;DHT22;592;48.764;9.174;2022-11-18T08:37:02;7.90;99.90
1205;DHT22;592;48.764;9.174;2022-11-18T08:39:29;8.00;99.90
1205;DHT22;592;48.764;9.174;2022-11-18T08:41:57;8.00;99.90
1205;DHT22;592;48.764;9.174;2022-11-18T08:44:25;8.00;99.90
1205;DHT22;592;48.764;9.174;2022-11-18T08:46:52;8.10;99.90
1205;DHT22;592;48.764;9.174;2022-11-18T08:49:19;8.20;99.90
1205;DHT22;592;48.764;9.174;2022-11-18T08:51:45;8.20;99.90
1205;DHT22;592;48.764;9.174;2022-11-18T08:54:12;8.30;99.90
1205;DHT22;592;48.764;9.174;2022-11-18T08:56:39;8.40;99.90
1205;DHT22;592;48.764;9.174;2022-11-18T08:59:06;8.40;99.90
1205;DHT22;592;48.764;9.174;2022-11-18T09:01:34;8.30;99.90
1205;DHT22;592;48.764;9.174;2022-11-18T09:04:01;8.30;99.90
1205;DHT22;592;48.764;9.174;2022-11-18T09:06:29;8.30;99.90
1205;DHT22;592;48.764;9.174;2022-11-18T09:08:55;8.40;99.90
1205;DHT22;592;48.764;9.174;2022-11-18T09:11:24;8.40;99.90
1205;DHT22;592;48.764;9.174;2022-11-18T09:13:52;8.40;99.90
1205;DHT22;592;48.764;9.174;2022-11-18T09:16:19;8.40;99.90
1205;DHT22;592;48.764;9.174;2022-11-18T09:18:49;8.40;99.90
1205;DHT22;592;48.764;9.174;2022-11-18T09:21:17;8.40;99.90
1205;DHT22;592;48.764;9.174;2022-11-18T09:23:44;8.30;99.90
1205;DHT22;592;48.764;9.174;2022-11-18T09:26:13;8.30;99.90
1205;DHT22;592;48.764;9.174;2022-11-18T09:28:41;8.40;99.90
1205;DHT22;592;48.764;9.174;2022-11-18T09:31:09;8.30;99.90
1205;DHT22;592;48.764;9.174;2022-11-18T09:33:37;8.40;99.90
1205;DHT22;592;48.764;9.174;2022-11-18T09:36:11;8.40;99.90
1205;DHT22;592;48.764;9.174;2022-11-18T09:38:38;8.50;99.90
1205;DHT22;592;48.764;9.174;2022-11-18T09:41:19;8.50;99.90
1205;DHT22;592;48.764;9.174;2022-11-18T09:43:57;8.50;99.90
1205;DHT22;592;48.764;9.174;2022-11-18T09:46:36;8.50;99.90
1205;DHT22;592;48.764;9.174;2022-11-18T09:49:09;8.60;99.90
1205;DHT22;592;48.764;9.174;2022-11-18T09:51:43;8.70;99.90
1205;DHT22;592;48.764;9.174;2022-11-18T09:54:15;8.70;99.90
1205;DHT22;592;48.764;9.174;2022-11-18T09:56:45;8.60;99.90
1205;DHT22;592;48.764;9.174;2022-11-18T09:59:13;8.80;99.90
1205;DHT22;592;48.764;9.174;2022-11-18T10:01:41;8.80;99.90
1205;DHT22;592;48.764;9.174;2022-11-18T10:04:13;8.80;99.90
1205;DHT22;592;48.764;9.174;2022-11-18T10:06:43;8.80;99.90
1205;DHT22;592;48.764;9.174;2022-11-18T10:09:21;8.90;99.90
1205;DHT22;592;48.764;9.174;2022-11-18T10:12:03;9.00;99.90
1205;DHT22;592;48.764;9.174;2022-11-18T10:17:34;9.10;99.90
1205;DHT22;592;48.764;9.174;2022-11-18T10:20:20;9.10;99.90
1205;DHT22;592;48.764;9.174;2022-11-18T10:22:51;9.10;99.90
1205;DHT22;592;48.764;9.174;2022-11-18T10:25:19;9.10;99.90
1205;DHT22;592;48.764;9.174;2022-11-18T10:27:49;9.20;99.90
1205;DHT22;592;48.764;9.174;2022-11-18T10:30:17;9.20;99.90
1205;DHT22;592;48.764;9.174;2022-11-18T10:32:56;9.00;99.90
1205;DHT22;592;48.764;9.174;2022-11-18T10:35:26;9.10;99.90
1205;DHT22;592;48.764;9.174;2022-11-18T10:38:02;9.10;99.90
1205;DHT22;592;48.764;9.174;2022-11-18T10:40:30;9.30;99.90
1205;DHT22;592;48.764;9.174;2022-11-18T10:42:58;9.40;99.90
1205;DHT22;592;48.764;9.174;2022-11-18T10:45:27;9.50;99.90
1205;DHT22;592;48.764;9.174;2022-11-18T10:48:00;9.70;99.90
1205;DHT22;592;48.764;9.174;2022-11-18T10:50:29;9.80;99.90
1205;DHT22;592;48.764;9.174;2022-11-18T10:52:56;9.70;99.90
1205;DHT22;592;48.764;9.174;2022-11-18T10:55:25;9.70;99.90
1205;DHT22;592;48.764;9.174;2022-11-18T10:57:56;9.70;99.90
1205;DHT22;592;48.764;9.174;2022-11-18T11:00:38;9.80;99.90
1205;DHT22;592;48.764;9.174;2022-11-18T11:06:29;9.50;99.90
1205;DHT22;592;48.764;9.174;2022-11-18T11:08:58;9.50;99.90
1205;DHT22;592;48.764;9.174;2022-11-18T11:11:31;9.50;99.90
1205;DHT22;592;48.764;9.174;2022-11-18T11:14:06;9.60;99.90
1205;DHT22;592;48.764;9.174;2022-11-18T11:16:44;9.40;99.90
1205;DHT22;592;48.764;9.174;2022-11-18T11:19:13;9.40;99.90
1205;DHT22;592;48.764;9.174;2022-11-18T11:21:42;9.40;99.90
1205;DHT22;592;48.764;9.174;2022-11-18T11:24:10;9.30;99.90
1205;DHT22;592;48.764;9.174;2022-11-18T11:26:50;9.30;99.90
1205;DHT22;592;48.764;9.174;2022-11-18T11:29:32;9.10;99.90
1205;DHT22;592;48.764;9.174;2022-11-18T11:32:05;9.00;99.90
1205;DHT22;592;48.764;9.174;2022-11-18T11:34:41;9.00;99.90
1205;DHT22;592;48.764;9.174;2022-11-18T11:37:17;9.30;99.90
1205;DHT22;592;48.764;9.174;2022-11-18T11:39:52;9.30;99.90
1205;DHT22;592;48.764;9.174;2022-11-18T11:42:34;9.40;99.90
1205;DHT22;592;48.764;9.174;2022-11-18T11:45:15;9.40;99.90
1205;DHT22;592;48.764;9.174;2022-11-18T11:47:59;9.50;99.90
1205;DHT22;592;48.764;9.174;2022-11-18T11:50:32;9.60;99.90
1205;DHT22;592;48.764;9.174;2022-11-18T11:53:28;9.60;99.90
1205;DHT22;592;48.764;9.174;2022-11-18T11:56:04;9.60;99.90
1205;DHT22;592;48.764;9.174;2022-11-18T11:58:45;9.60;99.90
1205;DHT22;592;48.764;9.174;2022-11-18T12:01:19;9.70;99.90
1205;DHT22;592;48.764;9.174;2022-11-18T12:03:50;9.50;99.90
1205;DHT22;592;48.764;9.174;2022-11-18T12:06:18;9.50;99.90
1205;DHT22;592;48.764;9.174;2022-11-18T12:08:54;9.60;99.90
1205;DHT22;592;48.764;9.174;2022-11-18T12:11:27;9.60;99.90
1205;DHT22;592;48.764;9.174;2022-11-18T12:14:01;9.40;99.90
1205;DHT22;592;48.764;9.174;2022-11-18T12:16:35;9.40;99.90
1205;DHT22;592;48.764;9.174;2022-11-18T12:19:10;9.10;99.90
1205;DHT22;592;48.764;9.174;2022-11-18T12:21:58;9.10;99.90
1205;DHT22;592;48.764;9.174;2022-11-18T12:24:35;9.20;99.90
1205;DHT22;592;48.764;9.174;2022-11-18T12:27:11;9.10;99.90
1205;DHT22;592;48.764;9.174;2022-11-18T12:29:52;8.90;99.90
1205;DHT22;592;48.764;9.174;2022-11-18T12:32:28;8.80;99.90
1205;DHT22;592;48.764;9.174;2022-11-18T12:34:58;8.70;99.90
1205;DHT22;592;48.764;9.174;2022-11-18T12:37:42;8.60;99.90
1205;DHT22;592;48.764;9.174;2022-11-18T12:40:36;8.60;99.90
1205;DHT22;592;48.764;9.174;2022-11-18T12:43:04;8.60;99.90
1205;DHT22;592;48.764;9.174;2022-11-18T12:45:55;8.80;99.90
1205;DHT22;592;48.764;9.174;2022-11-18T12:51:39;8.60;99.90
1205;DHT22;592;48.764;9.174;2022-11-18T12:54:31;8.50;99.90
1205;DHT22;592;48.764;9.174;2022-11-18T12:57:01;8.60;99.90
1205;DHT22;592;48.764;9.174;2022-11-18T12:59:31;8.70;99.90
1205;DHT22;592;48.764;9.174;2022-11-18T13:02:20;8.80;99.90
1205;DHT22;592;48.764;9.174;2022-11-18T13:05:06;9.00;99.90
1205;DHT22;592;48.764;9.174;2022-11-18T13:07:40;9.20;99.90
1205;DHT22;592;48.764;9.174;2022-11-18T13:10:29;9.30;99.90
1205;DHT22;592;48.764;9.174;2022-11-18T13:12:58;9.30;99.90
1205;DHT22;592;48.764;9.174;2022-11-18T13:15:25;9.40;99.90
1205;DHT22;592;48.764;9.174;2022-11-18T13:18:15;9.40;99.90
1205;DHT22;592;48.764;9.174;2022-11-18T13:20:42;9.50;99.90
1205;DHT22;592;48.764;9.174;2022-11-18T13:23:27;9.60;99.90
1205;DHT22;592;48.764;9.174;2022-11-18T13:26:16;9.60;99.90
1205;DHT22;592;48.764;9.174;2022-11-18T13:29:02;9.60;99.90
1205;DHT22;592;48.764;9.174;2022-11-18T13:31:36;9.30;99.90
1205;DHT22;592;48.764;9.174;2022-11-18T13:34:11;9.40;99.90
1205;DHT22;592;48.764;9.174;2022-11-18T13:36:42;9.30;99.90
1205;DHT22;592;48.764;9.174;2022-11-18T13:39:18;9.30;99.90
1205;DHT22;592;48.764;9.174;2022-11-18T13:41:57;9.40;99.90
1205;DHT22;592;48.764;9.174;2022-11-18T13:44:25;9.30;99.90
1205;DHT22;592;48.764;9.174;2022-11-18T13:46:55;9.40;99.90
1205;DHT22;592;48.764;9.174;2022-11-18T13:49:34;9.40;99.90
1205;DHT22;592;48.764;9.174;2022-11-18T13:52:02;9.40;99.90
1205;DHT22;592;48.764;9.174;2022-11-18T13:54:29;9.40;99.90
1205;DHT22;592;48.764;9.174;2022-11-18T13:56:57;9.30;99.90
1205;DHT22;592;48.764;9.174;2022-11-18T13:59:24;9.40;99.90
1205;DHT22;592;48.764;9.174;2022-11-18T14:01:53;9.50;99.90
1205;DHT22;592;48.764;9.174;2022-11-18T14:04:22;9.50;99.90
1205;DHT22;592;48.764;9.174;2022-11-18T14:06:51;9.40;99.90
1205;DHT22;592;48.764;9.174;2022-11-18T14:09:21;9.40;99.90
1205;DHT22;592;48.764;9.174;2022-11-18T14:12:00;9.20;99.90
1205;DHT22;592;48.764;9.174;2022-11-18T14:14:29;9.10;99.90
1205;DHT22;592;48.764;9.174;2022-11-18T14:17:14;9.10;99.90
1205;DHT22;592;48.764;9.174;2022-11-18T14:19:42;8.90;99.90
1205;DHT22;592;48.764;9.174;2022-11-18T14:22:14;8.80;99.90
1205;DHT22;592;48.764;9.174;2022-11-18T14:24:42;8.90;99.90
1205;DHT22;592;48.764;9.174;2022-11-18T14:27:34;8.90;99.90
1205;DHT22;592;48.764;9.174;2022-11-18T14:30:01;8.90;99.90
1205;DHT22;592;48.764;9.174;2022-11-18T14:32:28;8.80;99.90
1205;DHT22;592;48.764;9.174;2022-11-18T14:34:58;8.80;99.90
1205;DHT22;592;48.764;9.174;2022-11-18T14:37:26;8.70;99.90
1205;DHT22;592;48.764;9.174;2022-11-18T14:39:54;8.80;99.90
1205;DHT22;592;48.764;9.174;2022-11-18T14:42:21;8.80;99.90
1205;DHT22;592;48.764;9.174;2022-11-18T14:44:49;8.80;99.90
1205;DHT22;592;48.764;9.174;2022-11-18T14:47:21;8.70;99.90
1205;DHT22;592;48.764;9.174;2022-11-18T14:49:49;8.80;99.90
1205;DHT22;592;48.764;9.174;2022-11-18T14:52:16;8.80;99.90
1205;DHT22;592;48.764;9.174;2022-11-18T14:54:44;8.90;99.90
1205;DHT22;592;48.764;9.174;2022-11-18T14:57:14;8.70;99.90
1205;DHT22;592;48.764;9.174;2022-11-18T14:59:42;8.70;99.90
1205;DHT22;592;48.764;9.174;2022-11-18T15:02:17;8.60;99.90
1205;DHT22;592;48.764;9.174;2022-11-18T15:04:44;8.70;99.90
1205;DHT22;592;48.764;9.174;2022-11-18T15:07:12;8.60;99.90
1205;DHT22;592;48.764;9.174;2022-11-18T15:09:39;8.60;99.90
1205;DHT22;592;48.764;9.174;2022-11-18T15:12:08;8.50;99.90
1205;DHT22;592;48.764;9.174;2022-11-18T15:14:34;8.40;99.90
1205;DHT22;592;48.764;9.174;2022-11-18T15:17:01;8.40;99.90
1205;DHT22;592;48.764;9.174;2022-11-18T15:19:28;8.40;99.90
1205;DHT22;592;48.764;9.174;2022-11-18T15:21:55;8.40;99.90
1205;DHT22;592;48.764;9.174;2022-11-18T15:24:22;8.40;99.90
1205;DHT22;592;48.764;9.174;2022-11-18T15:26:49;8.40;99.90
1205;DHT22;592;48.764;9.174;2022-11-18T15:29:18;8.50;99.90
1205;DHT22;592;48.764;9.174;2022-11-18T15:31:45;8.50;99.90
1205;DHT22;592;48.764;9.174;2022-11-18T15:34:16;8.40;99.90
1205;DHT22;592;48.764;9.174;2022-11-18T15:36:44;8.50;99.90
1205;DHT22;592;48.764;9.174;2022-11-18T15:39:11;8.50;99.90
1205;DHT22;592;48.764;9.174;2022-11-18T15:41:40;8.50;99.90
1205;DHT22;592;48.764;9.174;2022-11-18T15:44:08;8.50;99.90
1205;DHT22;592;48.764;9.174;2022-11-18T15:46:37;8.50;99.90
1205;DHT22;592;48.764;9.174;2022-11-18T15:49:04;8.50;99.90
1205;DHT22;592;48.764;9.174;2022-11-18T15:51:31;8.60;99.90
1205;DHT22;592;48.764;9.174;2022-11-18T15:53:58;8.60;99.90
1205;DHT22;592;48.764;9.174;2022-11-18T15:56:26;8.60;99.90
1205;DHT22;592;48.764;9.174;2022-11-18T15:58:55;8.60;99.90
1205;DHT22;592;48.764;9.174;2022-11-18T16:01:23;8.60;99.90
1205;DHT22;592;48.764;9.174;2022-11-18T16:03:51;8.60;99.90
1205;DHT22;592;48.764;9.174;2022-11-18T16:06:18;8.70;99.90
1205;DHT22;592;48.764;9.174;2022-11-18T16:11:29;8.60;99.90
1205;DHT22;592;48.764;9.174;2022-11-18T16:14:15;8.50;99.90
1205;DHT22;592;48.764;9.174;2022-11-18T16:16:45;8.40;99.90
1205;DHT22;592;48.764;9.174;2022-11-18T16:19:17;8.50;99.90
1205;DHT22;592;48.764;9.174;2022-11-18T16:21:47;8.50;99.90
1205;DHT22;592;48.764;9.174;2022-11-18T16:24:16;8.40;99.90
1205;DHT22;592;48.764;9.174;2022-11-18T16:26:52;8.40;99.90
1205;DHT22;592;48.764;9.174;2022-11-18T16:29:26;8.50;99.90
1205;DHT22;592;48.764;9.174;2022-11-18T16:31:56;8.50;99.90
1205;DHT22;592;48.764;9.174;2022-11-18T16:34:27;8.40;99.90
1205;DHT22;592;48.764;9.174;2022-11-18T17:42:10;8.00;99.90
1205;DHT22;592;48.764;9.174;2022-11-18T17:47:41;8.00;99.90
1205;DHT22;592;48.764;9.174;2022-11-18T17:50:10;8.00;99.90
1205;DHT22;592;48.764;9.174;2022-11-18T17:52:37;8.10;99.90
1205;DHT22;592;48.764;9.174;2022-11-18T17:55:04;8.00;99.90
1205;DHT22;592;48.764;9.174;2022-11-18T18:47:44;7.50;99.90
1205;DHT22;592;48.764;9.174;2022-11-18T18:50:31;7.50;99.90
1205;DHT22;592;48.764;9.174;2022-11-18T18:53:01;7.50;99.90
1205;DHT22;592;48.764;9.174;2022-11-18T18:55:30;7.40;99.90
1205;DHT22;592;48.764;9.174;2022-11-18T18:58:10;7.40;99.90
1205;DHT22;592;48.764;9.174;2022-11-18T19:00:37;7.30;99.90
1205;DHT22;592;48.764;9.174;2022-11-18T19:03:06;7.30;99.90
1205;DHT22;592;48.764;9.174;2022-11-18T19:05:33;7.20;99.90
1205;DHT22;592;48.764;9.174;2022-11-18T19:08:00;7.20;99.90
1205;DHT22;592;48.764;9.174;2022-11-18T19:10:27;7.10;99.90